Time;durP1;ratioP1;P1;durP2;ratioP2;P2;SDS_P1;SDS_P2;PMS_P1;PMS_P2;Temp;Humidity;BMP_temperature;BMP_pressure;BME280_temperature;BME280_humidity;BME280_pressure;Samples;Min_cycle;Max_cycle;Signal;HPM_P1;HPM_P2
2022/09/01 00:01:17;;;;;;;1.63;1.50;;;;;;;18.57;44.98;101794.97;3590888;39;20300;-62
2022/09/01 00:03:46;;;;;;;2.67;1.60;;;;;;;18.53;44.86;101790.78;3590373;39;20418;-62
2022/09/01 00:06:11;;;;;;;2.75;1.50;;;;;;;18.49;45.72;101795.59;3590878;39;20368;-62
2022/09/01 00:08:37;;;;;;;1.63;1.25;;;;;;;18.41;45.78;101781.72;3589741;39;20071;-62
2022/09/01 00:11:02;;;;;;;2.35;1.35;;;;;;;18.39;46.10;101791.84;3578720;39;20060;-62
2022/09/01 00:13:32;;;;;;;3.83;1.42;;;;;;;18.32;46.35;101787.91;3590791;39;20063;-62
2022/09/01 00:16:03;;;;;;;2.78;1.38;;;;;;;18.31;46.36;101788.91;3590085;39;20059;-63
2022/09/01 00:18:30;;;;;;;4.00;1.40;;;;;;;18.27;47.01;101791.00;3589081;39;20332;-63
2022/09/01 00:20:58;;;;;;;3.28;1.30;;;;;;;18.23;47.43;101784.03;3589786;39;20454;-63
2022/09/01 00:23:26;;;;;;;2.60;1.55;;;;;;;18.20;47.28;101786.13;3589659;39;20483;-63
2022/09/01 00:25:54;;;;;;;2.97;1.50;;;;;;;18.17;48.23;101794.53;3590923;39;20072;-63
2022/09/01 00:28:19;;;;;;;3.10;1.70;;;;;;;18.16;47.86;101790.97;3589309;39;20059;-63
2022/09/01 00:30:45;;;;;;;1.63;1.50;;;;;;;18.13;48.56;101788.47;3589556;39;20063;-63
2022/09/01 00:33:11;;;;;;;2.58;1.50;;;;;;;18.05;48.86;101783.66;3588815;39;20084;-63
2022/09/01 00:35:36;;;;;;;5.82;1.60;;;;;;;18.06;48.36;101798.13;3589341;39;20068;-63
2022/09/01 00:38:02;;;;;;;4.32;1.60;;;;;;;18.01;49.17;101792.16;3590101;39;20373;-63
2022/09/01 00:40:28;;;;;;;2.55;1.73;;;;;;;17.93;49.31;101787.31;3590168;39;20092;-63
2022/09/01 00:42:54;;;;;;;3.30;1.60;;;;;;;17.88;49.92;101789.53;3588685;39;20129;-63
2022/09/01 00:45:20;;;;;;;5.63;1.90;;;;;;;17.88;49.77;101794.09;3588736;39;20399;-63
2022/09/01 00:47:48;;;;;;;1.88;1.65;;;;;;;17.79;50.34;101784.78;3587658;39;20056;-63
2022/09/01 00:50:17;;;;;;;3.88;1.63;;;;;;;17.80;50.39;101792.84;3587877;39;20138;-63
2022/09/01 00:52:54;;;;;;;3.78;1.80;;;;;;;17.69;50.70;101773.72;3585853;39;20102;-64
2022/09/01 00:55:38;;;;;;;2.15;1.52;;;;;;;17.67;51.16;101789.31;3587565;39;20317;-62
2022/09/01 00:58:07;;;;;;;2.10;1.45;;;;;;;17.69;50.90;101789.16;3587822;39;20084;-63
2022/09/01 01:00:39;;;;;;;2.00;1.52;;;;;;;17.63;51.12;101790.50;3587512;39;20051;-64
2022/09/01 01:03:08;;;;;;;2.30;1.60;;;;;;;17.59;51.29;101789.00;3587350;39;20087;-63
2022/09/01 01:05:47;;;;;;;1.75;1.65;;;;;;;17.54;51.72;101783.06;3586804;39;20054;-63
2022/09/01 01:08:17;;;;;;;2.10;1.55;;;;;;;17.52;52.42;101787.75;3588163;39;20062;-63
2022/09/01 01:10:42;;;;;;;4.78;1.88;;;;;;;17.49;51.97;101785.25;3586519;39;20044;-63
2022/09/01 01:13:15;;;;;;;2.10;1.38;;;;;;;16.64;52.44;101639.41;3587866;39;20066;-63
2022/09/01 01:15:43;;;;;;;2.13;1.48;;;;;;;17.42;52.23;101776.69;3587119;39;20382;-63
2022/09/01 01:18:14;;;;;;;3.60;1.58;;;;;;;17.40;52.61;101773.22;3577112;39;20047;-63
2022/09/01 01:24:00;;;;;;;2.97;1.70;;;;;;;17.32;52.84;101776.53;3587147;39;20050;-63
2022/09/01 01:26:27;;;;;;;4.70;1.45;;;;;;;17.30;53.17;101777.63;3585809;39;20054;-63
2022/09/01 01:28:53;;;;;;;2.45;1.38;;;;;;;17.18;53.21;101758.53;3587200;39;20052;-63
2022/09/01 01:31:21;;;;;;;2.20;1.50;;;;;;;17.19;53.58;101767.56;3589767;39;20407;-63
2022/09/01 01:33:55;;;;;;;2.45;1.30;;;;;;;17.20;53.94;101771.16;3587076;39;20671;-63
2022/09/01 01:36:32;;;;;;;2.22;1.65;;;;;;;17.16;53.82;101765.09;3586192;39;20055;-63
2022/09/01 01:39:11;;;;;;;3.28;1.70;;;;;;;17.10;54.38;101771.84;3586525;39;20049;-63
2022/09/01 01:41:42;;;;;;;4.30;1.58;;;;;;;17.08;54.44;101770.22;3586152;39;20082;-63
2022/09/01 01:44:11;;;;;;;2.03;1.70;;;;;;;17.07;54.54;101787.50;3586067;39;20043;-63
2022/09/01 01:46:44;;;;;;;2.90;1.50;;;;;;;17.03;54.90;101778.72;3586016;39;20121;-62
2022/09/01 01:49:19;;;;;;;3.15;1.88;;;;;;;17.02;54.50;101786.97;3587023;39;20064;-62
2022/09/01 01:51:49;;;;;;;3.60;1.70;;;;;;;16.99;55.23;101784.47;3586480;39;20057;-62
2022/09/01 01:54:18;;;;;;;2.53;1.90;;;;;;;16.95;54.85;101783.81;3589187;39;20117;-62
2022/09/01 01:56:44;;;;;;;5.40;1.88;;;;;;;16.88;54.77;101783.41;3588402;39;20346;-62
2022/09/01 01:59:13;;;;;;;2.35;1.80;;;;;;;16.84;55.38;101790.06;3587281;39;20302;-61
2022/09/01 02:01:41;;;;;;;2.58;1.70;;;;;;;16.78;55.74;101782.34;3587071;39;20098;-61
2022/09/01 02:04:10;;;;;;;2.72;1.73;;;;;;;16.77;56.07;101783.31;3588564;39;20056;-62
2022/09/01 02:06:40;;;;;;;3.90;1.80;;;;;;;16.75;55.51;101788.00;3590446;39;20124;-63
2022/09/01 02:09:07;;;;;;;2.40;1.95;;;;;;;16.75;55.59;101788.00;3586030;39;20450;-62
2022/09/01 02:11:36;;;;;;;4.68;2.10;;;;;;;16.72;55.82;101782.78;3589080;39;20075;-62
2022/09/01 02:14:04;;;;;;;3.47;1.75;;;;;;;16.72;56.15;101785.47;3588165;39;20064;-62
2022/09/01 02:16:33;;;;;;;3.00;1.83;;;;;;;16.68;56.63;101781.22;3590522;39;20055;-62
2022/09/01 02:19:01;;;;;;;3.83;1.80;;;;;;;16.64;56.12;101783.31;3588269;39;20043;-62
2022/09/01 02:21:26;;;;;;;2.58;1.92;;;;;;;16.62;56.49;101789.84;3589339;39;20068;-63
2022/09/01 02:24:01;;;;;;;3.55;1.77;;;;;;;16.60;56.38;101786.38;3588739;39;20091;-63
2022/09/01 02:26:37;;;;;;;2.67;1.90;;;;;;;16.58;56.55;101777.44;3589312;39;20593;-63
2022/09/01 02:29:16;;;;;;;3.60;1.58;;;;;;;16.55;57.03;101786.69;3587035;39;20130;-64
2022/09/01 02:31:42;;;;;;;2.28;2.00;;;;;;;16.52;57.13;101778.75;3587702;39;20052;-63
2022/09/01 02:34:12;;;;;;;3.50;1.83;;;;;;;16.47;57.21;101778.22;3586791;39;20056;-62
2022/09/01 02:36:46;;;;;;;6.35;2.00;;;;;;;16.44;57.14;101779.31;3589981;39;20036;-62
2022/09/01 02:39:15;;;;;;;3.63;1.60;;;;;;;16.44;57.44;101783.88;3587937;39;20103;-63
2022/09/01 02:41:40;;;;;;;3.78;1.77;;;;;;;16.40;57.38;101776.94;3587671;39;20059;-62
2022/09/01 02:44:10;;;;;;;1.77;1.67;;;;;;;16.41;57.65;101776.81;3588674;39;20334;-63
2022/09/01 02:46:42;;;;;;;1.90;1.80;;;;;;;16.39;57.44;101775.19;3591606;39;20058;-63
2022/09/01 02:49:14;;;;;;;2.25;1.90;;;;;;;16.37;57.60;101775.31;3589115;39;20064;-63
2022/09/01 02:51:46;;;;;;;3.75;1.90;;;;;;;16.34;57.45;101775.53;3592562;39;20064;-63
2022/09/01 02:54:15;;;;;;;2.40;1.77;;;;;;;16.33;57.72;101775.63;3590631;39;20052;-63
2022/09/01 02:56:46;;;;;;;3.60;2.22;;;;;;;16.30;57.87;101775.84;3589345;39;20079;-63
2022/09/01 02:59:20;;;;;;;3.17;1.67;;;;;;;16.24;57.69;101774.44;3589651;39;20067;-64
2022/09/01 03:01:48;;;;;;;3.70;2.00;;;;;;;16.24;57.88;101763.59;3587138;39;20052;-64
2022/09/01 03:04:15;;;;;;;6.88;2.08;;;;;;;16.23;57.94;101765.41;3589731;39;20078;-63
2022/09/01 03:06:41;;;;;;;4.07;1.90;;;;;;;16.26;57.83;101764.34;3590663;39;20048;-64
2022/09/01 03:09:13;;;;;;;2.10;1.83;;;;;;;16.21;58.19;101766.53;3589173;39;20051;-64
2022/09/01 03:11:42;;;;;;;3.15;2.15;;;;;;;16.20;58.24;101762.06;3588198;39;20043;-63
2022/09/01 03:14:08;;;;;;;3.40;2.10;;;;;;;16.15;58.52;101762.41;3589471;39;20313;-64
2022/09/01 03:16:36;;;;;;;2.05;1.75;;;;;;;16.08;58.69;101754.78;3588369;39;20083;-64
2022/09/01 03:19:07;;;;;;;4.88;2.10;;;;;;;16.08;58.57;101763.81;3586766;39;20068;-64
2022/09/01 03:21:39;;;;;;;2.30;2.10;;;;;;;16.05;59.11;101765.84;3589849;39;20059;-64
2022/09/01 03:24:11;;;;;;;4.85;2.13;;;;;;;15.96;58.97;101762.81;3574640;39;20056;-64
2022/09/01 03:26:37;;;;;;;3.20;2.03;;;;;;;15.98;58.82;101763.59;3591616;39;20346;-63
2022/09/01 03:29:03;;;;;;;3.05;2.10;;;;;;;15.98;58.79;101770.81;3587899;39;20060;-63
2022/09/01 03:31:30;;;;;;;2.28;2.10;;;;;;;15.83;59.09;101750.22;3591964;39;20060;-63
2022/09/01 03:33:56;;;;;;;3.78;2.10;;;;;;;15.92;59.19;101774.84;3588332;39;20043;-62
2022/09/01 03:36:24;;;;;;;5.18;2.10;;;;;;;15.87;59.54;101768.88;3588928;39;20102;-62
2022/09/01 03:38:51;;;;;;;4.90;2.10;;;;;;;15.86;58.96;101767.13;3589544;39;20051;-62
2022/09/01 03:41:23;;;;;;;6.05;2.40;;;;;;;15.77;59.71;101762.34;3590154;39;20078;-63
2022/09/01 03:43:53;;;;;;;2.25;2.03;;;;;;;15.79;59.90;101765.81;3587854;39;20067;-63
2022/09/01 03:46:20;;;;;;;4.07;2.25;;;;;;;15.78;59.55;101769.50;3587835;39;20056;-62
2022/09/01 03:48:54;;;;;;;2.53;2.10;;;;;;;15.77;59.65;101773.19;3589768;39;20127;-62
2022/09/01 03:51:23;;;;;;;2.20;2.00;;;;;;;15.74;59.54;101760.72;3588047;39;20068;-63
2022/09/01 03:53:55;;;;;;;3.30;2.10;;;;;;;15.72;59.74;101762.66;3586541;39;20060;-63
2022/09/01 03:56:26;;;;;;;2.75;2.20;;;;;;;15.71;59.67;101762.78;3589376;39;20074;-63
2022/09/01 03:58:55;;;;;;;3.35;2.30;;;;;;;15.69;60.20;101762.00;3588015;39;20086;-64
2022/09/01 04:01:21;;;;;;;3.42;2.20;;;;;;;15.66;59.78;101754.03;3592314;39;20064;-64
2022/09/01 04:03:47;;;;;;;2.53;2.25;;;;;;;15.68;60.10;101761.13;3590725;39;20284;-64
2022/09/01 04:06:17;;;;;;;4.55;2.45;;;;;;;15.69;60.12;101764.69;3588163;39;20059;-64
2022/09/01 04:08:43;;;;;;;3.20;2.08;;;;;;;15.69;60.56;101762.00;3588225;39;20048;-64
2022/09/01 04:11:17;;;;;;;4.22;2.20;;;;;;;15.65;60.50;101752.31;3587383;39;20071;-64
2022/09/01 04:13:44;;;;;;;2.50;2.10;;;;;;;15.67;59.91;101758.53;3589417;39;20052;-64
2022/09/01 04:19:19;;;;;;;4.75;2.33;;;;;;;15.65;60.89;101763.16;3588264;39;20307;-63
2022/09/01 04:21:50;;;;;;;2.90;2.03;;;;;;;15.67;60.15;101761.25;3589369;39;20108;-64
2022/09/01 04:24:17;;;;;;;5.30;2.58;;;;;;;15.70;60.49;101766.47;3586633;39;20819;-64
2022/09/01 04:26:45;;;;;;;3.05;2.03;;;;;;;15.71;60.53;101765.47;3587833;39;20048;-63
2022/09/01 04:29:12;;;;;;;3.75;2.30;;;;;;;15.76;60.49;101766.00;3587236;39;20121;-63
2022/09/01 04:31:39;;;;;;;3.58;3.03;;;;;;;15.79;60.46;101765.81;3583211;39;20133;-63
2022/09/01 04:34:12;;;;;;;7.65;5.22;;;;;;;15.84;60.12;101768.22;3585671;39;20058;-63
2022/09/01 04:36:42;;;;;;;5.43;3.08;;;;;;;15.87;59.81;101762.59;3579730;40;20056;-63
2022/09/01 04:39:09;;;;;;;10.88;8.20;;;;;;;15.84;59.34;101760.94;3586616;39;20049;-63
2022/09/01 04:41:38;;;;;;;5.00;3.47;;;;;;;15.86;59.59;101764.44;3589130;39;20140;-63
2022/09/01 04:44:06;;;;;;;5.57;2.63;;;;;;;15.85;59.62;101761.81;3580914;39;20476;-64
2022/09/01 04:46:45;;;;;;;2.40;2.20;;;;;;;15.85;59.38;101764.53;3588633;39;20055;-63
2022/09/01 04:49:15;;;;;;;3.03;2.30;;;;;;;15.73;59.43;101748.13;3585585;39;20130;-63
2022/09/01 04:51:45;;;;;;;4.95;2.20;;;;;;;15.78;59.08;101764.94;3587320;39;20083;-63
2022/09/01 04:54:13;;;;;;;2.75;2.35;;;;;;;15.76;59.48;101766.00;3586321;39;20048;-63
2022/09/01 04:56:42;;;;;;;2.22;2.10;;;;;;;15.70;59.42;101761.91;3585837;39;20110;-63
2022/09/01 04:59:09;;;;;;;3.63;2.55;;;;;;;15.75;59.44;101769.72;3585812;39;20048;-63
2022/09/01 05:01:42;;;;;;;3.78;2.65;;;;;;;15.75;59.02;101775.13;3587319;39;20099;-63
2022/09/01 05:04:11;;;;;;;3.80;2.35;;;;;;;15.73;59.33;101768.94;3586666;39;20376;-63
2022/09/01 05:06:41;;;;;;;2.83;2.08;;;;;;;15.68;58.94;101763.84;3590053;39;20043;-63
2022/09/01 05:09:10;;;;;;;3.97;2.22;;;;;;;15.72;59.26;101762.66;3586580;39;20324;-63
2022/09/01 05:11:40;;;;;;;4.65;2.30;;;;;;;15.61;59.07;101743.53;3589593;39;20059;-62
2022/09/01 05:14:06;;;;;;;4.63;2.13;;;;;;;15.71;59.06;101773.63;3587377;39;20051;-63
2022/09/01 05:16:34;;;;;;;4.20;2.40;;;;;;;15.75;59.10;101780.56;3588048;39;20055;-63
2022/09/01 05:19:00;;;;;;;6.45;2.40;;;;;;;15.74;59.20;101771.56;3588696;39;20071;-63
2022/09/01 05:21:28;;;;;;;2.45;2.10;;;;;;;15.73;59.11;101766.22;3590724;39;20075;-65
2022/09/01 05:23:57;;;;;;;4.03;1.92;;;;;;;15.75;59.00;101764.28;3590841;39;20382;-63
2022/09/01 05:26:32;;;;;;;7.32;2.63;;;;;;;15.77;58.69;101773.19;3589907;39;20056;-63
2022/09/01 05:29:03;;;;;;;7.18;2.33;;;;;;;15.80;58.86;101788.38;3587353;39;20052;-63
2022/09/01 05:31:33;;;;;;;3.80;2.13;;;;;;;15.77;58.58;101767.78;3588885;39;20342;-64
2022/09/01 05:34:02;;;;;;;3.08;2.17;;;;;;;15.87;58.41;101774.28;3588284;39;20095;-63
2022/09/01 05:36:30;;;;;;;6.72;2.30;;;;;;;15.91;58.72;101766.81;3585345;39;20757;-63
2022/09/01 05:38:57;;;;;;;3.40;2.08;;;;;;;15.93;58.56;101768.44;3587581;39;20111;-63
2022/09/01 05:41:24;;;;;;;4.88;2.50;;;;;;;15.95;58.47;101769.22;3587035;39;20088;-63
2022/09/01 05:43:53;;;;;;;3.22;2.10;;;;;;;15.99;58.22;101776.16;3587340;39;20055;-63
2022/09/01 05:46:26;;;;;;;2.50;2.05;;;;;;;16.04;57.87;101780.38;3578920;39;22197;-63
2022/09/01 05:48:54;;;;;;;3.45;2.22;;;;;;;16.08;58.16;101776.47;3585959;39;20384;-63
2022/09/01 05:51:25;;;;;;;2.30;2.10;;;;;;;16.11;57.33;101776.25;3585617;39;20056;-63
2022/09/01 05:53:57;;;;;;;3.17;2.40;;;;;;;16.10;57.57;101775.41;3585653;39;20083;-63
2022/09/01 05:56:25;;;;;;;4.35;2.22;;;;;;;16.18;57.15;101785.72;3588063;39;20401;-63
2022/09/01 05:58:53;;;;;;;4.72;2.45;;;;;;;16.19;57.38;101777.47;3588368;39;20390;-63
2022/09/01 06:01:25;;;;;;;3.10;2.00;;;;;;;16.20;57.66;101781.91;3588307;39;20063;-63
2022/09/01 06:03:55;;;;;;;4.93;2.30;;;;;;;16.22;57.19;101785.38;3585960;39;20058;-63
2022/09/01 06:06:23;;;;;;;5.95;2.30;;;;;;;16.25;57.37;101781.59;3585828;39;20492;-63
2022/09/01 06:08:51;;;;;;;7.45;3.33;;;;;;;16.27;57.04;101782.38;3587412;39;20400;-63
2022/09/01 06:11:18;;;;;;;5.28;3.20;;;;;;;16.29;57.47;101785.81;3586695;39;20357;-63
2022/09/01 06:13:46;;;;;;;6.57;2.63;;;;;;;16.33;57.56;101794.63;3587134;39;20058;-63
2022/09/01 06:16:15;;;;;;;5.22;2.95;;;;;;;16.36;57.21;101792.53;3588120;39;20051;-63
2022/09/01 06:18:42;;;;;;;4.30;2.78;;;;;;;16.34;57.29;101783.66;3588195;39;20362;-63
2022/09/01 06:21:15;;;;;;;9.98;3.45;;;;;;;16.39;57.34;101791.47;3587003;39;20328;-63
2022/09/01 06:23:43;;;;;;;;;;;;;;;16.38;57.14;101787.03;3591079;39;20047;-64
2022/09/01 06:26:27;;;;;;;5.18;2.53;;;;;;;16.42;57.15;101781.25;3588543;39;19940;-64
2022/09/01 06:28:57;;;;;;;11.45;2.63;;;;;;;15.76;56.82;101661.19;3589975;39;20353;-63
2022/09/01 06:31:27;;;;;;;7.32;2.85;;;;;;;16.51;56.70;101784.31;3589484;39;20043;-64
2022/09/01 06:33:54;;;;;;;6.90;2.40;;;;;;;16.56;56.35;101785.72;3587824;39;20558;-64
2022/09/01 06:36:22;;;;;;;6.70;2.80;;;;;;;16.63;56.25;101789.72;3589567;39;20383;-64
2022/09/01 06:38:50;;;;;;;5.82;3.60;;;;;;;16.71;56.21;101783.72;3587929;39;20036;-64
2022/09/01 06:41:18;;;;;;;6.97;2.65;;;;;;;16.63;55.64;101768.00;3586920;39;20089;-64
2022/09/01 06:43:51;;;;;;;6.15;2.83;;;;;;;16.88;55.75;101794.28;3589566;39;20390;-64
2022/09/01 06:46:18;;;;;;;7.57;2.80;;;;;;;16.89;55.09;101777.00;3575563;40;20153;-64
2022/09/01 06:48:46;;;;;;;6.80;2.58;;;;;;;17.09;55.32;101793.66;3588090;39;20094;-65
2022/09/01 06:51:21;;;;;;;6.82;2.53;;;;;;;17.23;55.10;101795.38;3588814;39;20345;-62
2022/09/01 06:53:55;;;;;;;8.60;2.58;;;;;;;17.22;54.05;101769.16;3591210;39;20048;-62
2022/09/01 06:56:23;;;;;;;9.02;3.15;;;;;;;17.53;54.32;101792.19;3588520;39;20413;-62
2022/09/01 06:58:52;;;;;;;7.00;3.15;;;;;;;17.64;54.03;101790.41;3587411;39;20427;-62
2022/09/01 07:01:21;;;;;;;5.03;2.38;;;;;;;17.65;53.83;101766.78;3591330;39;20070;-63
2022/09/01 07:03:50;;;;;;;3.85;2.30;;;;;;;17.84;53.28;101774.44;3589827;39;20129;-63
2022/09/01 07:06:26;;;;;;;6.75;2.45;;;;;;;18.17;53.44;101803.56;3577826;39;20416;-63
2022/09/01 07:08:54;;;;;;;6.03;2.80;;;;;;;18.36;53.17;101805.72;3588257;39;20044;-64
2022/09/01 07:11:26;;;;;;;6.38;2.70;;;;;;;18.55;52.16;101810.56;3587611;39;20055;-63
2022/09/01 07:14:00;;;;;;;4.40;2.30;;;;;;;18.63;51.56;101797.22;3583424;39;20347;-63
2022/09/01 07:16:29;;;;;;;4.10;2.17;;;;;;;18.89;51.66;101816.06;3589469;39;20326;-63
2022/09/01 07:18:59;;;;;;;5.82;2.30;;;;;;;19.07;51.69;101806.38;3588110;39;20346;-63
2022/09/01 07:21:27;;;;;;;6.93;2.80;;;;;;;19.30;50.49;101814.53;3587139;39;20066;-64
2022/09/01 07:23:52;;;;;;;7.70;2.13;;;;;;;19.46;49.97;101814.97;3587148;39;20091;-64
2022/09/01 07:26:19;;;;;;;6.47;2.40;;;;;;;18.91;49.59;101696.94;3587258;39;20125;-64
2022/09/01 07:28:46;;;;;;;6.97;2.75;;;;;;;19.79;50.02;101811.28;3589939;39;20047;-64
2022/09/01 07:31:19;;;;;;;4.72;2.22;;;;;;;19.55;49.80;101729.66;3585938;39;20055;-64
2022/09/01 07:33:49;;;;;;;3.03;2.10;;;;;;;20.28;48.67;101808.91;3587681;39;20048;-64
2022/09/01 07:36:16;;;;;;;6.00;2.10;;;;;;;20.49;48.33;101812.50;3587070;39;20344;-64
2022/09/01 07:38:42;;;;;;;5.95;2.10;;;;;;;20.69;47.12;101816.22;3592099;39;20039;-63
2022/09/01 07:41:13;;;;;;;4.75;2.92;;;;;;;20.76;47.31;101814.66;3591099;39;20101;-63
2022/09/01 07:43:43;;;;;;;5.00;2.40;;;;;;;20.92;47.29;101808.69;3586328;39;20364;-64
2022/09/01 07:46:10;;;;;;;6.63;2.50;;;;;;;20.99;47.66;101807.13;3589184;39;20345;-64
2022/09/01 07:48:38;;;;;;;5.40;2.60;;;;;;;21.17;46.75;101806.47;3586193;39;20064;-64
2022/09/01 07:51:04;;;;;;;8.10;2.30;;;;;;;21.30;45.20;101804.34;3587059;39;20064;-64
2022/09/01 07:53:34;;;;;;;5.88;2.03;;;;;;;21.48;45.97;101816.34;3575553;39;20067;-66
2022/09/01 07:56:10;;;;;;;5.78;2.10;;;;;;;21.66;45.89;101801.97;3592848;39;20569;-66
2022/09/01 07:58:39;;;;;;;6.75;2.30;;;;;;;21.85;44.92;101812.94;3587337;39;20518;-65
2022/09/01 08:01:18;;;;;;;5.18;2.45;;;;;;;21.86;44.60;101784.53;3587616;39;20055;-64
2022/09/01 08:03:52;;;;;;;4.60;2.22;;;;;;;22.11;45.68;101804.13;3588630;39;20052;-64
2022/09/01 08:06:21;;;;;;;7.28;2.30;;;;;;;22.36;44.54;101814.50;3587366;39;20125;-64
2022/09/01 08:08:50;;;;;;;5.95;2.08;;;;;;;22.53;44.17;101817.47;3594319;39;20051;-64
2022/09/01 08:11:24;;;;;;;5.22;2.50;;;;;;;22.62;44.30;101811.94;3590079;39;20503;-64
2022/09/01 08:13:53;;;;;;;7.32;2.22;;;;;;;22.70;43.77;101786.53;3591626;39;20048;-63
2022/09/01 08:16:20;;;;;;;9.25;2.53;;;;;;;22.41;43.92;101710.78;3588919;39;20098;-65
2022/09/01 08:18:47;;;;;;;10.15;2.60;;;;;;;23.13;43.92;101812.47;3590373;39;20150;-64
2022/09/01 08:21:15;;;;;;;6.25;2.50;;;;;;;23.24;43.60;101792.19;3588798;39;20047;-64
2022/09/01 08:23:41;;;;;;;5.35;2.20;;;;;;;23.33;42.27;101783.03;3588094;39;20056;-65
2022/09/01 08:26:12;;;;;;;7.15;2.70;;;;;;;23.71;42.08;101817.59;3587701;39;20410;-65
2022/09/01 08:28:39;;;;;;;9.32;2.42;;;;;;;23.82;41.56;101817.38;3587475;39;20063;-63
2022/09/01 08:31:16;;;;;;;13.43;2.80;;;;;;;23.84;41.18;101818.06;3588852;39;20434;-65
2022/09/01 08:33:46;;;;;;;6.95;2.90;;;;;;;24.00;41.55;101808.25;3586532;39;20390;-65
2022/09/01 08:36:15;;;;;;;8.30;2.15;;;;;;;24.09;41.31;101821.03;3587574;39;20068;-64
2022/09/01 08:38:41;;;;;;;10.30;2.47;;;;;;;24.16;41.61;101819.38;3590778;39;20047;-64
2022/09/01 08:41:42;;;;;;;4.60;2.28;;;;;;;24.40;41.68;101815.09;3588584;39;20121;-64
2022/09/01 08:44:29;;;;;;;4.38;2.28;;;;;;;24.58;40.59;101818.69;3585445;39;20150;-65
2022/09/01 08:47:09;;;;;;;5.32;2.20;;;;;;;24.82;40.88;101817.09;3585577;39;20616;-64
2022/09/01 08:49:39;;;;;;;5.10;2.38;;;;;;;24.97;39.71;101812.69;3586104;39;20402;-65
2022/09/01 08:52:31;;;;;;;4.30;2.80;;;;;;;25.02;40.44;101815.78;3581513;39;20056;-65
2022/09/01 08:55:13;;;;;;;5.85;2.50;;;;;;;25.16;39.83;101811.59;3586065;39;20064;-64
2022/09/01 08:57:44;;;;;;;3.17;2.38;;;;;;;25.21;39.74;101815.59;3583774;39;20080;-65
2022/09/01 09:00:18;;;;;;;4.90;2.10;;;;;;;25.36;39.36;101806.66;3589208;39;20068;-64
2022/09/01 09:02:56;;;;;;;4.10;2.03;;;;;;;25.58;39.55;101799.66;3589369;39;20060;-65
2022/09/01 09:06:06;;;;;;;3.33;2.15;;;;;;;25.77;38.41;101806.75;3590393;39;20052;-64
2022/09/01 09:09:04;;;;;;;4.90;2.00;;;;;;;26.05;38.76;101799.88;3587322;39;20060;-65
2022/09/01 09:12:14;;;;;;;3.25;1.92;;;;;;;26.14;37.72;101806.25;3586520;39;20052;-65
2022/09/01 09:15:20;;;;;;;4.47;2.13;;;;;;;26.39;38.56;101805.19;3583490;39;20137;-66
2022/09/01 09:17:58;;;;;;;5.43;2.10;;;;;;;26.62;36.93;101791.56;3588116;39;20060;-65
2022/09/01 09:20:27;;;;;;;11.77;2.67;;;;;;;26.68;36.10;101797.41;3576661;40;20058;-65
2022/09/01 09:22:54;;;;;;;4.53;1.85;;;;;;;26.80;36.95;101804.25;3589788;39;20137;-65
2022/09/01 09:25:20;;;;;;;3.45;2.00;;;;;;;26.88;35.85;101787.66;3590414;39;20125;-65
2022/09/01 09:27:50;;;;;;;7.93;2.45;;;;;;;27.07;35.61;101795.50;3587049;39;20047;-65
2022/09/01 09:30:26;;;;;;;5.10;2.25;;;;;;;27.22;35.58;101794.81;3589255;39;20052;-65
2022/09/01 09:33:05;;;;;;;4.30;1.63;;;;;;;27.36;34.22;101788.50;3584974;39;20060;-65
2022/09/01 09:35:37;;;;;;;4.05;1.80;;;;;;;27.58;35.06;101794.22;3590593;39;20063;-65
2022/09/01 09:38:18;;;;;;;3.42;1.90;;;;;;;27.73;34.43;101796.00;3586317;39;20104;-65
2022/09/01 09:40:59;;;;;;;5.55;2.00;;;;;;;27.89;34.35;101786.75;3587485;39;20060;-65
2022/09/01 09:43:29;;;;;;;4.30;1.95;;;;;;;27.93;33.38;101776.19;3586139;39;20106;-65
2022/09/01 09:46:35;;;;;;;4.40;1.50;;;;;;;28.06;32.79;101781.09;3594174;39;20067;-66
2022/09/01 09:49:30;;;;;;;4.63;2.10;;;;;;;28.16;33.59;101782.56;3588471;39;20056;-64
2022/09/01 09:52:17;;;;;;;4.45;1.63;;;;;;;28.26;32.10;101776.75;3584650;39;20122;-65
2022/09/01 09:55:25;;;;;;;4.63;1.55;;;;;;;28.30;31.51;101761.50;3591122;39;20733;-65
2022/09/01 09:57:58;;;;;;;5.15;1.58;;;;;;;28.33;32.54;101761.13;3585544;39;20133;-65
2022/09/01 10:00:34;;;;;;;;;;;;;;;28.42;32.07;101760.03;3586895;39;20043;-65
2022/09/01 10:03:05;;;;;;;3.72;1.60;;;;;;;28.58;31.05;101764.50;3591901;39;19940;-65
2022/09/01 10:05:52;;;;;;;1.58;1.15;;;;;;;28.59;30.51;101765.38;3589668;39;20064;-65
2022/09/01 10:08:26;;;;;;;1.92;1.42;;;;;;;28.35;30.88;101763.69;3587108;39;20048;-65
2022/09/01 10:10:53;;;;;;;5.63;1.33;;;;;;;28.52;29.69;101758.88;3588502;39;20132;-65
2022/09/01 10:13:23;;;;;;;4.53;1.70;;;;;;;28.54;28.42;101765.06;3591865;39;20358;-65
2022/09/01 10:15:55;;;;;;;1.42;0.95;;;;;;;28.32;29.07;101756.63;3591082;39;20152;-65
2022/09/01 10:18:39;;;;;;;2.47;1.08;;;;;;;28.30;28.99;101761.50;3587121;39;20072;-65
2022/09/01 10:21:33;;;;;;;2.20;1.10;;;;;;;28.25;28.84;101747.38;3593632;39;20055;-65
2022/09/01 10:24:09;;;;;;;5.05;1.50;;;;;;;28.50;29.51;101750.75;3591694;39;20059;-64
2022/09/01 10:26:40;;;;;;;2.22;1.02;;;;;;;28.53;27.96;101752.28;3590920;39;20066;-63
2022/09/01 10:29:25;;;;;;;2.92;1.17;;;;;;;28.46;28.46;101750.28;3592196;39;20310;-65
2022/09/01 10:31:55;;;;;;;2.70;1.10;;;;;;;28.71;27.71;101747.22;3588431;39;20382;-65
2022/09/01 10:34:23;;;;;;;2.40;1.05;;;;;;;28.83;26.71;101740.16;3582152;40;20092;-66
2022/09/01 10:36:49;;;;;;;3.80;1.30;;;;;;;29.08;27.76;101750.91;3587827;39;20506;-66
2022/09/01 10:39:18;;;;;;;6.43;1.40;;;;;;;28.96;26.54;101733.03;3591142;39;20136;-66
2022/09/01 10:41:53;;;;;;;1.55;0.90;;;;;;;29.06;27.43;101739.19;3587240;39;20276;-66
2022/09/01 10:44:37;;;;;;;3.05;1.10;;;;;;;29.26;26.29;101740.28;3592999;39;20043;-66
2022/09/01 10:47:31;;;;;;;6.07;1.50;;;;;;;29.49;26.82;101739.22;3595143;39;20060;-65
2022/09/01 10:50:03;;;;;;;1.90;1.33;;;;;;;29.63;26.35;101757.75;3590331;39;20049;-64
2022/09/01 10:52:41;;;;;;;1.90;0.93;;;;;;;29.55;24.92;101752.28;3593950;39;20328;-66
2022/09/01 10:55:20;;;;;;;1.25;1.10;;;;;;;29.53;26.24;101743.34;3594852;39;20094;-66
2022/09/01 10:58:23;;;;;;;4.35;1.05;;;;;;;29.75;26.12;101739.53;3588590;39;20055;-66
2022/09/01 11:00:52;;;;;;;2.78;1.10;;;;;;;29.88;25.49;101749.00;3585927;39;20066;-66
2022/09/01 11:03:19;;;;;;;1.45;1.05;;;;;;;30.07;26.08;101742.78;3592864;39;20075;-66
2022/09/01 11:06:02;;;;;;;3.15;1.08;;;;;;;30.25;25.50;101745.91;3589969;39;20085;-66
2022/09/01 11:08:28;;;;;;;2.28;1.30;;;;;;;30.44;24.55;101737.94;3590897;39;20067;-66
2022/09/01 11:11:35;;;;;;;2.35;1.48;;;;;;;30.52;24.33;101741.41;3592078;39;20067;-66
2022/09/01 11:14:04;;;;;;;1.33;1.23;;;;;;;30.50;23.58;101737.13;3591250;39;20048;-66
2022/09/01 11:16:32;;;;;;;3.05;1.30;;;;;;;30.36;25.26;101735.34;3591726;39;20048;-66
2022/09/01 11:19:23;;;;;;;2.03;1.48;;;;;;;30.67;24.96;101741.28;3588706;39;20426;-66
2022/09/01 11:22:23;;;;;;;1.83;1.00;;;;;;;30.80;25.16;101739.63;3589717;39;20318;-66
2022/09/01 11:25:06;;;;;;;1.80;0.90;;;;;;;30.53;24.70;101697.84;3589848;39;20409;-66
2022/09/01 11:27:47;;;;;;;2.25;1.20;;;;;;;30.69;24.46;101727.19;3587995;39;20051;-67
2022/09/01 11:30:40;;;;;;;2.95;1.10;;;;;;;30.73;24.09;101723.81;3588290;39;20325;-66
2022/09/01 11:33:12;;;;;;;2.15;0.90;;;;;;;30.88;23.82;101725.59;3591439;39;20050;-66
2022/09/01 11:35:37;;;;;;;4.30;1.33;;;;;;;31.01;23.98;101713.69;3588949;39;20055;-66
2022/09/01 11:38:07;;;;;;;7.72;1.23;;;;;;;31.25;23.89;101712.25;3587503;39;20401;-67
2022/09/01 11:40:35;;;;;;;2.00;1.05;;;;;;;31.24;24.27;101694.75;3588164;39;20058;-66
2022/09/01 11:43:14;;;;;;;3.80;1.20;;;;;;;31.53;24.19;101723.25;3589714;39;20111;-66
2022/09/01 11:46:06;;;;;;;4.70;1.25;;;;;;;31.80;23.77;101721.31;3590227;39;20059;-66
2022/09/01 11:48:32;;;;;;;3.90;1.20;;;;;;;31.53;22.85;101714.91;3590394;39;20036;-66
2022/09/01 11:51:02;;;;;;;2.25;1.10;;;;;;;31.27;23.25;101710.97;3587275;39;20048;-67
2022/09/01 11:53:28;;;;;;;1.15;1.08;;;;;;;31.34;23.75;101708.25;3589503;39;20056;-66
2022/09/01 11:56:13;;;;;;;2.55;1.38;;;;;;;31.58;23.11;101715.09;3588896;39;20064;-66